sensor_id;sensor_type;location;lat;lon;timestamp;temperature;humidity
5675;DHT22;2860;54.284;10.158;2023-04-15T00:00:28;6.80;99.90
5675;DHT22;2860;54.284;10.158;2023-04-15T00:02:53;6.80;99.90
5675;DHT22;2860;54.284;10.158;2023-04-15T00:05:19;6.80;99.90
5675;DHT22;2860;54.284;10.158;2023-04-15T00:07:45;6.90;99.90
5675;DHT22;2860;54.284;10.158;2023-04-15T00:10:11;6.90;99.90
5675;DHT22;2860;54.284;10.158;2023-04-15T00:12:37;6.90;99.90
5675;DHT22;2860;54.284;10.158;2023-04-15T00:15:03;6.90;99.90
5675;DHT22;2860;54.284;10.158;2023-04-15T00:17:29;6.90;99.90
5675;DHT22;2860;54.284;10.158;2023-04-15T00:19:55;6.90;99.90
5675;DHT22;2860;54.284;10.158;2023-04-15T00:22:20;6.90;99.90
5675;DHT22;2860;54.284;10.158;2023-04-15T00:24:46;6.80;99.90
5675;DHT22;2860;54.284;10.158;2023-04-15T00:27:12;6.90;99.90
5675;DHT22;2860;54.284;10.158;2023-04-15T00:29:37;6.90;99.90
5675;DHT22;2860;54.284;10.158;2023-04-15T00:32:03;6.90;99.90
5675;DHT22;2860;54.284;10.158;2023-04-15T00:34:29;6.90;99.90
5675;DHT22;2860;54.284;10.158;2023-04-15T00:36:55;6.90;99.90
5675;DHT22;2860;54.284;10.158;2023-04-15T00:39:21;6.90;99.90
5675;DHT22;2860;54.284;10.158;2023-04-15T00:41:47;6.90;99.90
5675;DHT22;2860;54.284;10.158;2023-04-15T00:44:13;7.00;99.90
5675;DHT22;2860;54.284;10.158;2023-04-15T00:46:39;6.90;99.90
5675;DHT22;2860;54.284;10.158;2023-04-15T00:49:06;6.90;99.90
5675;DHT22;2860;54.284;10.158;2023-04-15T00:51:33;6.90;99.90
5675;DHT22;2860;54.284;10.158;2023-04-15T00:54:03;6.90;99.90
5675;DHT22;2860;54.284;10.158;2023-04-15T00:56:29;6.90;99.90
5675;DHT22;2860;54.284;10.158;2023-04-15T00:58:56;6.90;99.90
5675;DHT22;2860;54.284;10.158;2023-04-15T01:01:23;7.00;99.90
5675;DHT22;2860;54.284;10.158;2023-04-15T01:03:49;7.00;99.90
5675;DHT22;2860;54.284;10.158;2023-04-15T01:06:15;6.90;99.90
5675;DHT22;2860;54.284;10.158;2023-04-15T01:08:41;7.00;99.90
5675;DHT22;2860;54.284;10.158;2023-04-15T01:11:07;7.00;99.90
5675;DHT22;2860;54.284;10.158;2023-04-15T01:13:33;7.00;99.90
5675;DHT22;2860;54.284;10.158;2023-04-15T01:16:01;7.00;99.90
5675;DHT22;2860;54.284;10.158;2023-04-15T01:18:28;7.00;99.90
5675;DHT22;2860;54.284;10.158;2023-04-15T01:20:53;7.00;99.90
5675;DHT22;2860;54.284;10.158;2023-04-15T01:23:20;7.00;99.90
5675;DHT22;2860;54.284;10.158;2023-04-15T01:25:48;6.90;99.90
5675;DHT22;2860;54.284;10.158;2023-04-15T01:28:14;6.90;99.90
5675;DHT22;2860;54.284;10.158;2023-04-15T01:30:39;7.00;99.90
5675;DHT22;2860;54.284;10.158;2023-04-15T01:33:05;7.00;99.90
5675;DHT22;2860;54.284;10.158;2023-04-15T01:35:31;7.00;99.90
5675;DHT22;2860;54.284;10.158;2023-04-15T01:38:03;7.00;99.90
5675;DHT22;2860;54.284;10.158;2023-04-15T01:40:30;7.00;99.90
5675;DHT22;2860;54.284;10.158;2023-04-15T01:42:56;7.00;99.90
5675;DHT22;2860;54.284;10.158;2023-04-15T01:45:22;7.10;99.90
5675;DHT22;2860;54.284;10.158;2023-04-15T01:47:47;7.10;99.90
5675;DHT22;2860;54.284;10.158;2023-04-15T01:50:13;7.10;99.90
5675;DHT22;2860;54.284;10.158;2023-04-15T01:52:39;7.10;99.90
5675;DHT22;2860;54.284;10.158;2023-04-15T01:55:05;7.10;99.90
5675;DHT22;2860;54.284;10.158;2023-04-15T01:57:32;7.10;99.90
5675;DHT22;2860;54.284;10.158;2023-04-15T01:59:57;7.00;99.90
5675;DHT22;2860;54.284;10.158;2023-04-15T02:02:23;7.10;99.90
5675;DHT22;2860;54.284;10.158;2023-04-15T02:04:49;7.10;99.90
5675;DHT22;2860;54.284;10.158;2023-04-15T02:07:14;7.10;99.90
5675;DHT22;2860;54.284;10.158;2023-04-15T02:09:40;7.10;99.90
5675;DHT22;2860;54.284;10.158;2023-04-15T02:12:06;7.10;99.90
5675;DHT22;2860;54.284;10.158;2023-04-15T02:14:31;7.10;99.90
5675;DHT22;2860;54.284;10.158;2023-04-15T02:16:57;7.10;99.90
5675;DHT22;2860;54.284;10.158;2023-04-15T02:19:22;7.20;99.90
5675;DHT22;2860;54.284;10.158;2023-04-15T02:21:47;7.20;99.90
5675;DHT22;2860;54.284;10.158;2023-04-15T02:24:13;7.10;99.90
5675;DHT22;2860;54.284;10.158;2023-04-15T02:26:38;7.10;99.90
5675;DHT22;2860;54.284;10.158;2023-04-15T02:29:04;7.10;99.90
5675;DHT22;2860;54.284;10.158;2023-04-15T02:31:30;7.10;99.90
5675;DHT22;2860;54.284;10.158;2023-04-15T02:33:58;7.20;99.90
5675;DHT22;2860;54.284;10.158;2023-04-15T02:36:24;7.10;99.90
5675;DHT22;2860;54.284;10.158;2023-04-15T02:38:51;7.10;99.90
5675;DHT22;2860;54.284;10.158;2023-04-15T02:41:16;7.10;99.90
5675;DHT22;2860;54.284;10.158;2023-04-15T02:43:42;7.20;99.90
5675;DHT22;2860;54.284;10.158;2023-04-15T02:46:08;7.10;99.90
5675;DHT22;2860;54.284;10.158;2023-04-15T02:48:37;7.20;99.90
5675;DHT22;2860;54.284;10.158;2023-04-15T02:51:16;7.10;99.90
5675;DHT22;2860;54.284;10.158;2023-04-15T02:53:44;7.10;99.90
5675;DHT22;2860;54.284;10.158;2023-04-15T02:56:09;7.10;99.90
5675;DHT22;2860;54.284;10.158;2023-04-15T02:58:36;7.10;99.90
5675;DHT22;2860;54.284;10.158;2023-04-15T03:01:01;7.10;99.90
5675;DHT22;2860;54.284;10.158;2023-04-15T03:03:27;7.10;99.90
5675;DHT22;2860;54.284;10.158;2023-04-15T03:05:53;7.20;99.90
5675;DHT22;2860;54.284;10.158;2023-04-15T03:08:18;7.20;99.90
5675;DHT22;2860;54.284;10.158;2023-04-15T03:10:45;7.20;99.90
5675;DHT22;2860;54.284;10.158;2023-04-15T03:13:11;7.20;99.90
5675;DHT22;2860;54.284;10.158;2023-04-15T03:15:37;7.20;99.90
5675;DHT22;2860;54.284;10.158;2023-04-15T03:18:02;7.20;99.90
5675;DHT22;2860;54.284;10.158;2023-04-15T03:20:28;7.20;99.90
5675;DHT22;2860;54.284;10.158;2023-04-15T03:22:53;7.20;99.90
5675;DHT22;2860;54.284;10.158;2023-04-15T03:25:19;7.20;99.90
5675;DHT22;2860;54.284;10.158;2023-04-15T03:27:44;7.20;99.90
5675;DHT22;2860;54.284;10.158;2023-04-15T03:30:10;7.20;99.90
5675;DHT22;2860;54.284;10.158;2023-04-15T03:32:36;7.20;99.90
5675;DHT22;2860;54.284;10.158;2023-04-15T03:35:02;7.20;99.90
5675;DHT22;2860;54.284;10.158;2023-04-15T03:37:27;7.20;99.90
5675;DHT22;2860;54.284;10.158;2023-04-15T03:39:53;7.30;99.90
5675;DHT22;2860;54.284;10.158;2023-04-15T03:42:18;7.20;99.90
5675;DHT22;2860;54.284;10.158;2023-04-15T03:44:44;7.20;99.90
5675;DHT22;2860;54.284;10.158;2023-04-15T03:47:10;7.30;99.90
5675;DHT22;2860;54.284;10.158;2023-04-15T03:49:35;7.30;99.90
5675;DHT22;2860;54.284;10.158;2023-04-15T03:52:01;7.20;99.90
5675;DHT22;2860;54.284;10.158;2023-04-15T03:54:27;7.30;99.90
5675;DHT22;2860;54.284;10.158;2023-04-15T03:56:52;7.30;99.90
5675;DHT22;2860;54.284;10.158;2023-04-15T03:59:18;7.30;99.90
5675;DHT22;2860;54.284;10.158;2023-04-15T04:01:43;7.30;99.90
5675;DHT22;2860;54.284;10.158;2023-04-15T04:04:09;7.30;99.90
5675;DHT22;2860;54.284;10.158;2023-04-15T04:06:35;7.30;99.90
5675;DHT22;2860;54.284;10.158;2023-04-15T04:09:00;7.30;99.90
5675;DHT22;2860;54.284;10.158;2023-04-15T04:11:26;7.30;99.90
5675;DHT22;2860;54.284;10.158;2023-04-15T04:13:52;7.30;99.90
5675;DHT22;2860;54.284;10.158;2023-04-15T04:16:18;7.30;99.90
5675;DHT22;2860;54.284;10.158;2023-04-15T04:18:44;7.30;99.90
5675;DHT22;2860;54.284;10.158;2023-04-15T04:21:09;7.30;99.90
5675;DHT22;2860;54.284;10.158;2023-04-15T04:23:35;7.30;99.90
5675;DHT22;2860;54.284;10.158;2023-04-15T04:26:01;7.30;99.90
5675;DHT22;2860;54.284;10.158;2023-04-15T04:28:26;7.40;99.90
5675;DHT22;2860;54.284;10.158;2023-04-15T04:30:52;7.40;99.90
5675;DHT22;2860;54.284;10.158;2023-04-15T04:33:18;7.40;99.90
5675;DHT22;2860;54.284;10.158;2023-04-15T04:35:43;7.40;99.90
5675;DHT22;2860;54.284;10.158;2023-04-15T04:38:09;7.40;99.90
5675;DHT22;2860;54.284;10.158;2023-04-15T04:40:34;7.40;99.90
5675;DHT22;2860;54.284;10.158;2023-04-15T04:43:00;7.40;99.90
5675;DHT22;2860;54.284;10.158;2023-04-15T04:45:26;7.40;99.90
5675;DHT22;2860;54.284;10.158;2023-04-15T04:47:51;7.40;99.90
5675;DHT22;2860;54.284;10.158;2023-04-15T04:50:17;7.40;99.90
5675;DHT22;2860;54.284;10.158;2023-04-15T04:52:42;7.40;99.90
5675;DHT22;2860;54.284;10.158;2023-04-15T04:55:08;7.40;99.90
5675;DHT22;2860;54.284;10.158;2023-04-15T04:57:33;7.50;99.90
5675;DHT22;2860;54.284;10.158;2023-04-15T05:00:04;7.50;99.90
5675;DHT22;2860;54.284;10.158;2023-04-15T05:02:30;7.50;99.90
5675;DHT22;2860;54.284;10.158;2023-04-15T05:04:56;7.50;99.90
5675;DHT22;2860;54.284;10.158;2023-04-15T05:07:22;7.50;99.90
5675;DHT22;2860;54.284;10.158;2023-04-15T05:09:47;7.50;99.90
5675;DHT22;2860;54.284;10.158;2023-04-15T05:12:13;7.50;99.90
5675;DHT22;2860;54.284;10.158;2023-04-15T05:14:41;7.50;99.90
5675;DHT22;2860;54.284;10.158;2023-04-15T05:17:07;7.60;99.90
5675;DHT22;2860;54.284;10.158;2023-04-15T05:19:33;7.50;99.90
5675;DHT22;2860;54.284;10.158;2023-04-15T05:21:59;7.60;99.90
5675;DHT22;2860;54.284;10.158;2023-04-15T05:24:25;7.60;99.90
5675;DHT22;2860;54.284;10.158;2023-04-15T05:26:50;7.60;99.90
5675;DHT22;2860;54.284;10.158;2023-04-15T05:29:16;7.60;99.90
5675;DHT22;2860;54.284;10.158;2023-04-15T05:31:41;7.60;99.90
5675;DHT22;2860;54.284;10.158;2023-04-15T05:34:07;7.70;99.90
5675;DHT22;2860;54.284;10.158;2023-04-15T05:36:33;7.70;99.90
5675;DHT22;2860;54.284;10.158;2023-04-15T05:38:58;7.70;99.90
5675;DHT22;2860;54.284;10.158;2023-04-15T05:41:24;7.60;99.90
5675;DHT22;2860;54.284;10.158;2023-04-15T05:43:49;7.60;99.90
5675;DHT22;2860;54.284;10.158;2023-04-15T05:46:15;7.70;99.90
5675;DHT22;2860;54.284;10.158;2023-04-15T05:48:40;7.60;99.90
5675;DHT22;2860;54.284;10.158;2023-04-15T05:51:06;7.70;99.90
5675;DHT22;2860;54.284;10.158;2023-04-15T05:53:31;7.70;99.90
5675;DHT22;2860;54.284;10.158;2023-04-15T05:55:57;7.70;99.90
5675;DHT22;2860;54.284;10.158;2023-04-15T05:58:22;7.70;99.90
5675;DHT22;2860;54.284;10.158;2023-04-15T06:00:48;7.80;99.90
5675;DHT22;2860;54.284;10.158;2023-04-15T06:03:13;7.80;99.90
5675;DHT22;2860;54.284;10.158;2023-04-15T06:05:39;7.80;99.90
5675;DHT22;2860;54.284;10.158;2023-04-15T06:08:05;7.80;99.90
5675;DHT22;2860;54.284;10.158;2023-04-15T06:10:30;7.90;99.90
5675;DHT22;2860;54.284;10.158;2023-04-15T06:13:01;7.90;99.90
5675;DHT22;2860;54.284;10.158;2023-04-15T06:15:27;8.00;99.90
5675;DHT22;2860;54.284;10.158;2023-04-15T06:17:52;8.10;99.90
5675;DHT22;2860;54.284;10.158;2023-04-15T06:20:18;8.10;99.90
5675;DHT22;2860;54.284;10.158;2023-04-15T06:22:43;8.20;99.90
5675;DHT22;2860;54.284;10.158;2023-04-15T06:25:09;8.20;99.90
5675;DHT22;2860;54.284;10.158;2023-04-15T06:27:35;8.20;99.90
5675;DHT22;2860;54.284;10.158;2023-04-15T06:30:00;8.10;99.90
5675;DHT22;2860;54.284;10.158;2023-04-15T06:32:26;8.20;99.90
5675;DHT22;2860;54.284;10.158;2023-04-15T06:34:51;8.20;99.90
5675;DHT22;2860;54.284;10.158;2023-04-15T06:37:17;8.20;99.90
5675;DHT22;2860;54.284;10.158;2023-04-15T06:39:42;8.20;99.90
5675;DHT22;2860;54.284;10.158;2023-04-15T06:42:09;8.20;99.90
5675;DHT22;2860;54.284;10.158;2023-04-15T06:44:35;8.10;99.90
5675;DHT22;2860;54.284;10.158;2023-04-15T06:47:01;8.10;99.90
5675;DHT22;2860;54.284;10.158;2023-04-15T06:49:27;8.20;99.90
5675;DHT22;2860;54.284;10.158;2023-04-15T06:51:52;8.20;99.90
5675;DHT22;2860;54.284;10.158;2023-04-15T06:54:18;8.20;99.90
5675;DHT22;2860;54.284;10.158;2023-04-15T06:56:43;8.10;99.90
5675;DHT22;2860;54.284;10.158;2023-04-15T06:59:09;8.20;99.90
5675;DHT22;2860;54.284;10.158;2023-04-15T07:01:34;8.10;99.90
5675;DHT22;2860;54.284;10.158;2023-04-15T07:04:00;8.10;99.90
5675;DHT22;2860;54.284;10.158;2023-04-15T07:06:26;8.20;99.90
5675;DHT22;2860;54.284;10.158;2023-04-15T07:08:52;8.20;99.90
5675;DHT22;2860;54.284;10.158;2023-04-15T07:11:17;8.10;99.90
5675;DHT22;2860;54.284;10.158;2023-04-15T07:13:43;8.20;99.90
5675;DHT22;2860;54.284;10.158;2023-04-15T07:16:09;8.20;99.90
5675;DHT22;2860;54.284;10.158;2023-04-15T07:18:34;8.20;99.90
5675;DHT22;2860;54.284;10.158;2023-04-15T07:21:00;8.20;99.90
5675;DHT22;2860;54.284;10.158;2023-04-15T07:23:25;8.20;99.90
5675;DHT22;2860;54.284;10.158;2023-04-15T07:25:51;8.30;99.90
5675;DHT22;2860;54.284;10.158;2023-04-15T07:28:17;8.30;99.90
5675;DHT22;2860;54.284;10.158;2023-04-15T07:30:42;8.30;99.90
5675;DHT22;2860;54.284;10.158;2023-04-15T07:33:08;8.30;99.90
5675;DHT22;2860;54.284;10.158;2023-04-15T07:35:34;8.40;99.90
5675;DHT22;2860;54.284;10.158;2023-04-15T07:37:59;8.40;99.90
5675;DHT22;2860;54.284;10.158;2023-04-15T07:40:25;8.50;99.90
5675;DHT22;2860;54.284;10.158;2023-04-15T07:42:50;8.50;99.90
5675;DHT22;2860;54.284;10.158;2023-04-15T07:45:16;8.50;99.90
5675;DHT22;2860;54.284;10.158;2023-04-15T07:47:42;8.40;99.90
5675;DHT22;2860;54.284;10.158;2023-04-15T07:50:08;8.40;99.90
5675;DHT22;2860;54.284;10.158;2023-04-15T07:52:35;8.40;99.90
5675;DHT22;2860;54.284;10.158;2023-04-15T07:55:05;8.50;99.90
5675;DHT22;2860;54.284;10.158;2023-04-15T07:57:33;8.60;99.90
5675;DHT22;2860;54.284;10.158;2023-04-15T07:59:59;8.80;99.90
5675;DHT22;2860;54.284;10.158;2023-04-15T08:02:25;8.90;99.90
5675;DHT22;2860;54.284;10.158;2023-04-15T08:04:50;8.90;99.90
5675;DHT22;2860;54.284;10.158;2023-04-15T08:07:17;9.00;99.90
5675;DHT22;2860;54.284;10.158;2023-04-15T08:09:43;9.10;99.90
5675;DHT22;2860;54.284;10.158;2023-04-15T08:12:08;9.30;99.90
5675;DHT22;2860;54.284;10.158;2023-04-15T08:14:37;9.30;99.90
5675;DHT22;2860;54.284;10.158;2023-04-15T08:17:02;9.40;99.90
5675;DHT22;2860;54.284;10.158;2023-04-15T08:19:28;9.40;99.90
5675;DHT22;2860;54.284;10.158;2023-04-15T08:21:54;9.50;99.90
5675;DHT22;2860;54.284;10.158;2023-04-15T08:24:20;9.40;99.90
5675;DHT22;2860;54.284;10.158;2023-04-15T08:29:21;9.50;99.90
5675;DHT22;2860;54.284;10.158;2023-04-15T08:31:47;9.40;99.90
5675;DHT22;2860;54.284;10.158;2023-04-15T08:34:13;9.40;99.90
5675;DHT22;2860;54.284;10.158;2023-04-15T08:36:39;9.30;99.90
5675;DHT22;2860;54.284;10.158;2023-04-15T08:39:04;9.30;99.90
5675;DHT22;2860;54.284;10.158;2023-04-15T08:41:39;9.30;99.90
5675;DHT22;2860;54.284;10.158;2023-04-15T08:44:09;9.30;99.90
5675;DHT22;2860;54.284;10.158;2023-04-15T08:46:35;9.30;99.90
5675;DHT22;2860;54.284;10.158;2023-04-15T08:49:03;9.40;99.90
5675;DHT22;2860;54.284;10.158;2023-04-15T08:51:29;9.40;99.90
5675;DHT22;2860;54.284;10.158;2023-04-15T08:53:56;9.50;99.90
5675;DHT22;2860;54.284;10.158;2023-04-15T08:56:25;9.60;99.90
5675;DHT22;2860;54.284;10.158;2023-04-15T08:58:52;9.60;99.90
5675;DHT22;2860;54.284;10.158;2023-04-15T09:01:18;9.60;99.90
5675;DHT22;2860;54.284;10.158;2023-04-15T09:03:44;9.70;99.90
5675;DHT22;2860;54.284;10.158;2023-04-15T09:06:13;9.70;99.90
5675;DHT22;2860;54.284;10.158;2023-04-15T09:08:40;9.80;99.90
5675;DHT22;2860;54.284;10.158;2023-04-15T09:11:05;9.90;99.90
5675;DHT22;2860;54.284;10.158;2023-04-15T09:13:31;10.00;99.90
5675;DHT22;2860;54.284;10.158;2023-04-15T09:15:56;10.10;99.90
5675;DHT22;2860;54.284;10.158;2023-04-15T09:18:29;10.30;99.90
5675;DHT22;2860;54.284;10.158;2023-04-15T09:20:56;10.40;99.90
5675;DHT22;2860;54.284;10.158;2023-04-15T09:23:29;10.50;99.90
5675;DHT22;2860;54.284;10.158;2023-04-15T09:25:56;10.40;99.90
5675;DHT22;2860;54.284;10.158;2023-04-15T09:28:25;10.50;99.90
5675;DHT22;2860;54.284;10.158;2023-04-15T09:30:54;10.70;99.90
5675;DHT22;2860;54.284;10.158;2023-04-15T09:33:21;10.90;99.90
5675;DHT22;2860;54.284;10.158;2023-04-15T09:35:56;11.10;99.90
5675;DHT22;2860;54.284;10.158;2023-04-15T09:38:22;11.20;99.90
5675;DHT22;2860;54.284;10.158;2023-04-15T09:40:48;11.30;99.90
5675;DHT22;2860;54.284;10.158;2023-04-15T09:43:13;11.50;99.90
5675;DHT22;2860;54.284;10.158;2023-04-15T09:45:47;11.80;99.90
5675;DHT22;2860;54.284;10.158;2023-04-15T09:50:44;12.10;99.90
5675;DHT22;2860;54.284;10.158;2023-04-15T09:53:10;12.20;99.90
5675;DHT22;2860;54.284;10.158;2023-04-15T09:55:38;12.30;99.90
5675;DHT22;2860;54.284;10.158;2023-04-15T09:58:21;12.30;99.90
5675;DHT22;2860;54.284;10.158;2023-04-15T10:00:48;12.30;99.90
5675;DHT22;2860;54.284;10.158;2023-04-15T10:03:21;12.30;99.90
5675;DHT22;2860;54.284;10.158;2023-04-15T10:05:49;12.30;99.90
5675;DHT22;2860;54.284;10.158;2023-04-15T10:08:20;12.30;99.90
5675;DHT22;2860;54.284;10.158;2023-04-15T10:10:47;12.20;99.90
5675;DHT22;2860;54.284;10.158;2023-04-15T10:13:20;12.40;99.90
5675;DHT22;2860;54.284;10.158;2023-04-15T10:18:23;12.30;99.90
5675;DHT22;2860;54.284;10.158;2023-04-15T10:20:49;12.40;99.90
5675;DHT22;2860;54.284;10.158;2023-04-15T10:23:15;12.50;99.90
5675;DHT22;2860;54.284;10.158;2023-04-15T10:25:44;12.50;99.90
5675;DHT22;2860;54.284;10.158;2023-04-15T10:28:10;12.50;99.90
5675;DHT22;2860;54.284;10.158;2023-04-15T10:30:36;12.40;99.90
5675;DHT22;2860;54.284;10.158;2023-04-15T10:33:02;12.40;99.90
5675;DHT22;2860;54.284;10.158;2023-04-15T10:35:32;12.70;99.90
5675;DHT22;2860;54.284;10.158;2023-04-15T10:38:01;12.90;99.90
5675;DHT22;2860;54.284;10.158;2023-04-15T10:40:30;13.00;99.90
5675;DHT22;2860;54.284;10.158;2023-04-15T10:43:05;13.00;99.90
5675;DHT22;2860;54.284;10.158;2023-04-15T10:45:33;13.20;99.90
5675;DHT22;2860;54.284;10.158;2023-04-15T10:48:03;13.40;99.90
5675;DHT22;2860;54.284;10.158;2023-04-15T10:50:30;13.40;99.90
5675;DHT22;2860;54.284;10.158;2023-04-15T10:52:57;13.20;99.90
5675;DHT22;2860;54.284;10.158;2023-04-15T10:55:25;13.10;99.90
5675;DHT22;2860;54.284;10.158;2023-04-15T10:57:52;12.90;99.90
5675;DHT22;2860;54.284;10.158;2023-04-15T11:00:20;12.90;99.90
5675;DHT22;2860;54.284;10.158;2023-04-15T11:05:17;13.40;99.90
5675;DHT22;2860;54.284;10.158;2023-04-15T11:12:49;13.70;99.90
5675;DHT22;2860;54.284;10.158;2023-04-15T11:15:34;14.10;99.90
5675;DHT22;2860;54.284;10.158;2023-04-15T11:18:21;14.40;99.90
5675;DHT22;2860;54.284;10.158;2023-04-15T11:20:52;14.20;99.90
5675;DHT22;2860;54.284;10.158;2023-04-15T11:23:37;14.10;99.90
5675;DHT22;2860;54.284;10.158;2023-04-15T11:26:05;13.90;99.90
5675;DHT22;2860;54.284;10.158;2023-04-15T11:28:34;14.00;99.90
5675;DHT22;2860;54.284;10.158;2023-04-15T11:33:35;14.40;99.90
5675;DHT22;2860;54.284;10.158;2023-04-15T11:36:01;14.30;99.90
5675;DHT22;2860;54.284;10.158;2023-04-15T11:38:28;14.20;99.90
5675;DHT22;2860;54.284;10.158;2023-04-15T11:40:54;14.40;99.90
5675;DHT22;2860;54.284;10.158;2023-04-15T11:43:21;14.50;99.90
5675;DHT22;2860;54.284;10.158;2023-04-15T11:45:57;14.60;99.90
5675;DHT22;2860;54.284;10.158;2023-04-15T11:48:31;14.60;99.90
5675;DHT22;2860;54.284;10.158;2023-04-15T11:51:02;14.70;99.90
5675;DHT22;2860;54.284;10.158;2023-04-15T11:53:47;14.70;99.90
5675;DHT22;2860;54.284;10.158;2023-04-15T11:56:21;14.70;99.90
5675;DHT22;2860;54.284;10.158;2023-04-15T11:58:47;14.80;99.90
5675;DHT22;2860;54.284;10.158;2023-04-15T12:01:15;14.90;99.90
5675;DHT22;2860;54.284;10.158;2023-04-15T12:03:42;14.90;99.90
5675;DHT22;2860;54.284;10.158;2023-04-15T12:13:56;15.80;99.90
5675;DHT22;2860;54.284;10.158;2023-04-15T12:16:23;15.60;99.90
5675;DHT22;2860;54.284;10.158;2023-04-15T12:18:53;15.50;99.90
5675;DHT22;2860;54.284;10.158;2023-04-15T12:21:23;15.30;99.90
5675;DHT22;2860;54.284;10.158;2023-04-15T12:23:55;14.90;99.90
5675;DHT22;2860;54.284;10.158;2023-04-15T12:26:34;14.90;99.90
5675;DHT22;2860;54.284;10.158;2023-04-15T12:29:03;14.70;99.90
5675;DHT22;2860;54.284;10.158;2023-04-15T12:31:28;14.60;99.90
5675;DHT22;2860;54.284;10.158;2023-04-15T12:33:57;14.70;99.90
5675;DHT22;2860;54.284;10.158;2023-04-15T12:36:23;14.50;99.90
5675;DHT22;2860;54.284;10.158;2023-04-15T12:38:49;14.40;99.90
5675;DHT22;2860;54.284;10.158;2023-04-15T12:41:15;14.20;99.90
5675;DHT22;2860;54.284;10.158;2023-04-15T12:43:43;14.20;99.90
5675;DHT22;2860;54.284;10.158;2023-04-15T12:46:08;14.30;99.90
5675;DHT22;2860;54.284;10.158;2023-04-15T12:48:34;14.50;99.90
5675;DHT22;2860;54.284;10.158;2023-04-15T12:51:00;14.70;99.90
5675;DHT22;2860;54.284;10.158;2023-04-15T12:53:26;14.90;99.90
5675;DHT22;2860;54.284;10.158;2023-04-15T12:55:52;15.20;99.90
5675;DHT22;2860;54.284;10.158;2023-04-15T12:58:18;15.20;99.90
5675;DHT22;2860;54.284;10.158;2023-04-15T13:00:44;15.00;99.90
5675;DHT22;2860;54.284;10.158;2023-04-15T13:03:09;15.00;99.90
5675;DHT22;2860;54.284;10.158;2023-04-15T13:05:35;14.90;99.90
5675;DHT22;2860;54.284;10.158;2023-04-15T13:08:01;14.90;99.90
5675;DHT22;2860;54.284;10.158;2023-04-15T13:10:28;14.80;99.90
5675;DHT22;2860;54.284;10.158;2023-04-15T13:12:54;15.00;99.90
5675;DHT22;2860;54.284;10.158;2023-04-15T13:15:21;15.20;99.90
5675;DHT22;2860;54.284;10.158;2023-04-15T13:17:47;15.30;99.90
5675;DHT22;2860;54.284;10.158;2023-04-15T13:20:12;15.20;99.90
5675;DHT22;2860;54.284;10.158;2023-04-15T13:22:38;15.10;99.90
5675;DHT22;2860;54.284;10.158;2023-04-15T13:25:04;15.00;99.90
5675;DHT22;2860;54.284;10.158;2023-04-15T13:27:30;15.00;99.90
5675;DHT22;2860;54.284;10.158;2023-04-15T13:29:55;15.00;99.90
5675;DHT22;2860;54.284;10.158;2023-04-15T13:32:21;15.10;99.90
5675;DHT22;2860;54.284;10.158;2023-04-15T13:34:47;15.20;99.90
5675;DHT22;2860;54.284;10.158;2023-04-15T13:37:12;15.00;99.90
5675;DHT22;2860;54.284;10.158;2023-04-15T13:39:38;14.80;99.90
5675;DHT22;2860;54.284;10.158;2023-04-15T13:42:03;14.50;99.90
5675;DHT22;2860;54.284;10.158;2023-04-15T13:44:29;14.60;99.90
5675;DHT22;2860;54.284;10.158;2023-04-15T13:46:55;14.80;99.90
5675;DHT22;2860;54.284;10.158;2023-04-15T13:49:20;15.00;99.90
5675;DHT22;2860;54.284;10.158;2023-04-15T13:51:46;14.80;99.90
5675;DHT22;2860;54.284;10.158;2023-04-15T13:54:11;15.00;99.90
5675;DHT22;2860;54.284;10.158;2023-04-15T13:56:37;15.10;99.90
5675;DHT22;2860;54.284;10.158;2023-04-15T13:59:02;15.20;99.90
5675;DHT22;2860;54.284;10.158;2023-04-15T14:01:28;15.20;99.90
5675;DHT22;2860;54.284;10.158;2023-04-15T14:03:54;15.10;99.90
5675;DHT22;2860;54.284;10.158;2023-04-15T14:06:20;15.10;99.90
5675;DHT22;2860;54.284;10.158;2023-04-15T14:08:45;15.00;99.90
5675;DHT22;2860;54.284;10.158;2023-04-15T14:11:11;14.70;99.90
5675;DHT22;2860;54.284;10.158;2023-04-15T14:13:36;14.50;99.90
5675;DHT22;2860;54.284;10.158;2023-04-15T14:16:02;14.30;99.90
5675;DHT22;2860;54.284;10.158;2023-04-15T14:18:28;14.20;99.90
5675;DHT22;2860;54.284;10.158;2023-04-15T14:20:54;14.20;99.90
5675;DHT22;2860;54.284;10.158;2023-04-15T14:23:21;14.20;99.90
5675;DHT22;2860;54.284;10.158;2023-04-15T14:25:46;14.20;99.90
5675;DHT22;2860;54.284;10.158;2023-04-15T14:28:12;14.10;99.90
5675;DHT22;2860;54.284;10.158;2023-04-15T14:30:37;14.10;99.90
5675;DHT22;2860;54.284;10.158;2023-04-15T14:33:03;14.10;99.90
5675;DHT22;2860;54.284;10.158;2023-04-15T14:35:28;14.10;99.90
5675;DHT22;2860;54.284;10.158;2023-04-15T14:37:55;14.20;99.90
5675;DHT22;2860;54.284;10.158;2023-04-15T14:40:21;14.30;99.90
5675;DHT22;2860;54.284;10.158;2023-04-15T14:42:46;14.10;99.90
5675;DHT22;2860;54.284;10.158;2023-04-15T14:45:12;14.00;99.90
5675;DHT22;2860;54.284;10.158;2023-04-15T14:47:37;13.90;99.90
5675;DHT22;2860;54.284;10.158;2023-04-15T14:50:03;14.00;99.90
5675;DHT22;2860;54.284;10.158;2023-04-15T14:52:31;14.00;99.90
5675;DHT22;2860;54.284;10.158;2023-04-15T14:55:06;13.90;99.90
5675;DHT22;2860;54.284;10.158;2023-04-15T14:57:32;13.80;99.90
5675;DHT22;2860;54.284;10.158;2023-04-15T14:59:57;13.60;99.90
5675;DHT22;2860;54.284;10.158;2023-04-15T15:02:23;13.70;99.90
5675;DHT22;2860;54.284;10.158;2023-04-15T15:04:49;13.80;99.90
5675;DHT22;2860;54.284;10.158;2023-04-15T15:07:14;13.80;99.90
5675;DHT22;2860;54.284;10.158;2023-04-15T15:09:40;13.80;99.90
5675;DHT22;2860;54.284;10.158;2023-04-15T15:12:05;13.70;99.90
5675;DHT22;2860;54.284;10.158;2023-04-15T15:14:31;13.60;99.90
5675;DHT22;2860;54.284;10.158;2023-04-15T15:16:56;13.50;99.90
5675;DHT22;2860;54.284;10.158;2023-04-15T15:19:22;13.40;99.90
5675;DHT22;2860;54.284;10.158;2023-04-15T15:21:49;13.30;99.90
5675;DHT22;2860;54.284;10.158;2023-04-15T15:24:14;13.10;99.90
5675;DHT22;2860;54.284;10.158;2023-04-15T15:26:40;13.00;99.90
5675;DHT22;2860;54.284;10.158;2023-04-15T15:29:06;13.10;99.90
5675;DHT22;2860;54.284;10.158;2023-04-15T15:31:33;13.00;99.90
5675;DHT22;2860;54.284;10.158;2023-04-15T15:33:59;12.80;99.90
5675;DHT22;2860;54.284;10.158;2023-04-15T15:36:25;12.60;99.90
5675;DHT22;2860;54.284;10.158;2023-04-15T15:38:52;12.60;99.90
5675;DHT22;2860;54.284;10.158;2023-04-15T15:41:17;12.50;99.90
5675;DHT22;2860;54.284;10.158;2023-04-15T15:43:43;12.50;99.90
5675;DHT22;2860;54.284;10.158;2023-04-15T15:46:08;12.40;99.90
5675;DHT22;2860;54.284;10.158;2023-04-15T15:48:34;12.40;99.90
5675;DHT22;2860;54.284;10.158;2023-04-15T15:51:00;12.40;99.90
5675;DHT22;2860;54.284;10.158;2023-04-15T15:53:25;12.30;99.90
5675;DHT22;2860;54.284;10.158;2023-04-15T15:55:51;12.20;99.90
5675;DHT22;2860;54.284;10.158;2023-04-15T15:58:16;12.20;99.90
5675;DHT22;2860;54.284;10.158;2023-04-15T16:00:42;12.20;99.90
5675;DHT22;2860;54.284;10.158;2023-04-15T16:03:08;12.20;99.90
5675;DHT22;2860;54.284;10.158;2023-04-15T16:05:34;12.30;99.90
5675;DHT22;2860;54.284;10.158;2023-04-15T16:08:00;12.20;99.90
5675;DHT22;2860;54.284;10.158;2023-04-15T16:10:26;12.20;99.90
5675;DHT22;2860;54.284;10.158;2023-04-15T16:12:52;12.20;99.90
5675;DHT22;2860;54.284;10.158;2023-04-15T16:15:17;12.10;99.90